Honest Sky — 3FAA5 — position and weather

sailwx.info

Track history (hours):
 
Tides and Currents Weather Stations Pressure Air Temp Water Temp Dewpoint Dewpoint Depression Visibility Wind Speed Wind Dir Waves Ship Positions

Honest Sky

Last reported at 2018-Feb-16 00:49 UTC. Time now 2018-Feb-17 20:13 UTC.
Position N 48°37' W 126°18'.

Length 235 m; draft 13.9 m.

Type: Cargo ship. MMSI: 354436000.

Date/timePositionNaut miles runAvg speedWind from/ knotsBaromVisibWave heightAir tempDewpointWater temp
2018-Feb-16 00:49N 48°37' W 126°18'3 9.8
2018-Feb-16 00:30N 48°36' W 126°14'510.4
2018-Feb-16 00:00N 48°34' W 126°07'510.4
2018-Feb-15 23:30N 48°32' W 125°59'510.2
2018-Feb-15 23:00N 48°32' W 125°52'510.4
2018-Feb-15 22:30N 48°32' W 125°44'510.7
2018-Feb-15 22:00N 48°31' W 125°36'510.1
2018-Feb-15 21:30N 48°31' W 125°28'5 9.6
2018-Feb-15 21:00N 48°31' W 125°21'5 9.6
2018-Feb-15 20:28N 48°31' W 125°13'510.1
2018-Feb-15 19:57N 48°31' W 125°05'610.2
2018-Feb-15 19:20N 48°31' W 124°56'310.6
2018-Feb-15 19:00N 48°31' W 124°50'611.0
2018-Feb-15 18:30N 48°30' W 124°42'611.4
2018-Feb-15 17:59N 48°28' W 124°34'611.9
2018-Feb-15 17:30N 48°26' W 124°26'612.6
2018-Feb-15 17:00N 48°23' W 124°17'712.7
2018-Feb-15 16:29N 48°21' W 124°08'612.8
2018-Feb-15 16:00N 48°18' W 123°59'612.5
2018-Feb-15 15:30N 48°17' W 123°50'811.6
2018-Feb-15 14:46N 48°16' W 123°38'310.8
2018-Feb-15 14:30N 48°16' W 123°33'510.0
2018-Feb-15 14:00N 48°19' W 123°27'5 9.6
2018-Feb-15 13:30N 48°23' W 123°23'5 9.7
2018-Feb-15 13:00N 48°24' W 123°16'510.1
2018-Feb-15 12:30N 48°28' W 123°13'510.8
2018-Feb-15 12:00N 48°33' W 123°13'510.0
2018-Feb-15 11:30N 48°38' W 123°15'4 8.5
2018-Feb-15 11:00N 48°42' W 123°13'5 9.6
2018-Feb-15 10:30N 48°45' W 123°07'5 9.7
2018-Feb-15 10:00N 48°47' W 123°01'510.4
2018-Feb-15 09:30N 48°52' W 123°02'611.2
2018-Feb-15 09:00N 48°57' W 123°06'4 7.7
2018-Feb-15 08:29N 49°01' W 123°09'0 0.0
2018-Feb-15 07:58N 49°01' W 123°09'0 0.0
2018-Feb-15 07:28N 49°01' W 123°09'0 0.0
2018-Feb-15 06:58N 49°01' W 123°09'0 0.0
2018-Feb-15 06:25N 49°01' W 123°09'0 0.0
2018-Feb-15 05:58N 49°01' W 123°09'0 0.0
2018-Feb-15 05:25N 49°01' W 123°09'0 0.0
2018-Feb-15 04:49N 49°01' W 123°09'0 0.0
2018-Feb-15 04:28N 49°01' W 123°09'0 0.0
2018-Feb-15 03:58N 49°01' W 123°09'0 0.0
2018-Feb-15 03:25N 49°01' W 123°09'0 0.0
2018-Feb-15 02:55N 49°01' W 123°09'0 0.0
2018-Feb-15 02:28N 49°01' W 123°09'0 0.0
2018-Feb-15 01:58N 49°01' W 123°09'0 0.0
2018-Feb-15 01:28N 49°01' W 123°09'0 0.0
2018-Feb-15 00:58N 49°01' W 123°09'0 0.0
2018-Feb-15 00:28N 49°01' W 123°09'0 0.0
2018-Feb-14 23:55N 49°01' W 123°09'0 0.0
2018-Feb-14 23:28N 49°01' W 123°09'0 0.0
2018-Feb-14 22:58N 49°01' W 123°09'0 0.0
2018-Feb-14 22:28N 49°01' W 123°09'0 0.0
2018-Feb-14 21:58N 49°01' W 123°09'0 0.0
2018-Feb-14 21:25N 49°01' W 123°09'0 0.0
2018-Feb-14 20:58N 49°01' W 123°09'0 0.0
2018-Feb-14 20:28N 49°01' W 123°09'0 0.0
2018-Feb-14 19:58N 49°01' W 123°09'0 0.0
2018-Feb-14 19:28N 49°01' W 123°09'0 0.0
2018-Feb-14 18:55N 49°01' W 123°09'0 0.0
2018-Feb-14 18:25N 49°01' W 123°09'0 0.0
2018-Feb-14 17:55N 49°01' W 123°09'0 0.0
2018-Feb-14 17:19N 49°01' W 123°09'0 0.0
2018-Feb-14 16:43N 49°01' W 123°09'0 0.0
2018-Feb-14 16:25N 49°01' W 123°09'0 0.0
2018-Feb-14 15:55N 49°01' W 123°09'0 0.0
2018-Feb-14 15:22N 49°01' W 123°09'0 0.0
2018-Feb-14 14:49N 49°01' W 123°09'0 0.0
2018-Feb-14 14:25N 49°01' W 123°09'0 0.0
2018-Feb-14 13:58N 49°01' W 123°09'0 0.0
2018-Feb-14 13:28N 49°01' W 123°09'0 0.0
2018-Feb-14 12:55N 49°01' W 123°09'0 0.0
2018-Feb-14 12:28N 49°01' W 123°09'0 0.0
2018-Feb-14 11:55N 49°01' W 123°09'0 0.0
2018-Feb-14 11:28N 49°01' W 123°09'0 0.0
2018-Feb-14 10:58N 49°01' W 123°09'0 0.0
2018-Feb-14 10:28N 49°01' W 123°09'0 0.0
2018-Feb-14 09:58N 49°01' W 123°09'0 0.0
2018-Feb-14 09:28N 49°01' W 123°09'0 0.0
2018-Feb-14 08:58N 49°01' W 123°09'0 0.0
2018-Feb-14 08:25N 49°01' W 123°09'0 0.0
2018-Feb-14 07:43N 49°01' W 123°09'0 0.0
2018-Feb-14 06:55N 49°01' W 123°09'0 0.0
2018-Feb-14 06:25N 49°01' W 123°09'0 0.0
2018-Feb-14 05:04N 49°01' W 123°09'0 0.0
2018-Feb-14 04:55N 49°01' W 123°09'0 0.0
2018-Feb-14 03:46N 49°01' W 123°09'0 0.0
2018-Feb-14 03:22N 49°01' W 123°09'0 0.0
2018-Feb-14 02:49N 49°01' W 123°09'0 0.0
2018-Feb-14 02:25N 49°01' W 123°09'0 0.0
2018-Feb-14 01:55N 49°01' W 123°09'0 0.0
2018-Feb-14 01:22N 49°01' W 123°09'0 0.0
2018-Feb-14 00:55N 49°01' W 123°09'0 0.0
2018-Feb-14 00:25N 49°01' W 123°09'0 0.0
2018-Feb-13 23:40N 49°01' W 123°09'0 0.0
2018-Feb-13 23:16N 49°01' W 123°09'0 0.0
2018-Feb-13 22:58N 49°01' W 123°09'0 0.0
2018-Feb-13 22:25N 49°01' W 123°09'0 0.0
2018-Feb-13 21:49N 49°01' W 123°09'0 0.0
2018-Feb-13 21:19N 49°01' W 123°09'0 0.0
2018-Feb-13 20:58N 49°01' W 123°09'0 0.0
2018-Feb-13 20:25N 49°01' W 123°09'0 0.0
2018-Feb-13 19:55N 49°01' W 123°09'0 0.0
2018-Feb-13 19:28N 49°01' W 123°09'0 0.0
2018-Feb-13 18:58N 49°01' W 123°09'0 0.0
2018-Feb-13 18:28N 49°01' W 123°09'0 0.0
2018-Feb-13 17:58N 49°01' W 123°09'0 0.0
2018-Feb-13 17:28N 49°01' W 123°09'0 0.0
2018-Feb-13 16:58N 49°01' W 123°09'0 0.0
2018-Feb-13 16:28N 49°01' W 123°09'0 0.0
2018-Feb-13 15:55N 49°01' W 123°09'0 0.0
2018-Feb-13 15:25N 49°01' W 123°09'0 0.0
2018-Feb-13 14:58N 49°01' W 123°09'0 0.0
2018-Feb-13 14:28N 49°01' W 123°09'0 0.0
2018-Feb-13 13:55N 49°01' W 123°09'0 0.0
2018-Feb-13 13:28N 49°01' W 123°09'0 0.0
2018-Feb-13 12:55N 49°01' W 123°09'0 0.0
2018-Feb-13 12:28N 49°01' W 123°09'0 0.0
2018-Feb-13 11:58N 49°01' W 123°09'0 0.0
2018-Feb-13 11:28N 49°01' W 123°09'0 0.0
2018-Feb-13 10:58N 49°01' W 123°09'0 0.0
2018-Feb-13 10:28N 49°01' W 123°09'0 0.0
2018-Feb-13 09:55N 49°01' W 123°09'0 0.0
2018-Feb-13 09:25N 49°01' W 123°09'0 0.0
2018-Feb-13 08:58N 49°01' W 123°09'0 0.0
2018-Feb-13 08:22N 49°01' W 123°09'0 0.0
2018-Feb-13 07:58N 49°01' W 123°09'0 0.0
2018-Feb-13 07:28N 49°01' W 123°09'0 0.0
2018-Feb-13 06:58N 49°01' W 123°09'0 0.0
2018-Feb-13 06:28N 49°01' W 123°09'0 0.0
2018-Feb-13 05:58N 49°01' W 123°09'0 0.0
2018-Feb-13 05:25N 49°01' W 123°09'0 0.0
2018-Feb-13 04:58N 49°01' W 123°09'0 0.0
2018-Feb-13 04:22N 49°01' W 123°09'0 0.0
2018-Feb-13 03:55N 49°01' W 123°09'0 0.0
2018-Feb-13 03:28N 49°01' W 123°09'0 0.0
2018-Feb-13 02:58N 49°01' W 123°09'0 0.0
2018-Feb-13 02:28N 49°01' W 123°09'0 0.0
2018-Feb-13 01:55N 49°01' W 123°09'0 0.0
2018-Feb-13 01:22N 49°01' W 123°09'0 0.0
2018-Feb-13 00:58N 49°01' W 123°09'0 0.0
2018-Feb-13 00:28N 49°01' W 123°09'0 0.0
2018-Feb-12 23:55N 49°01' W 123°09'0 0.0
2018-Feb-12 23:16N 49°01' W 123°09'0 0.0
2018-Feb-12 22:37N 49°01' W 123°09'0 0.0
2018-Feb-12 22:25N 49°01' W 123°09'0 0.0
2018-Feb-12 21:55N 49°01' W 123°09'0 0.0
2018-Feb-12 21:10N 49°01' W 123°09'0 0.0
2018-Feb-12 20:58N 49°01' W 123°09'0 0.0
2018-Feb-12 20:19N 49°01' W 123°09'0 0.0
2018-Feb-12 19:52N 49°01' W 123°09'0 0.0
2018-Feb-12 19:10N 49°01' W 123°09'0 0.0
2018-Feb-12 18:58N 49°01' W 123°09'0 0.3
2018-Feb-12 18:30N 49°01' W 123°09'2 3.9
2018-Feb-12 18:00N 49°00' W 123°12'510.3
2018-Feb-12 17:30N 49°02' W 123°20'510.4
2018-Feb-12 17:00N 49°06' W 123°24'611.7
2018-Feb-12 16:30N 49°12' W 123°22'612.5
2018-Feb-12 16:00N 49°18' W 123°18'4 8.4
2018-Feb-12 15:30N 49°20' W 123°13'0 0.1
2018-Feb-12 14:48N 49°20' W 123°13'0 0.0
2018-Feb-12 14:27N 49°20' W 123°13'0 0.0
2018-Feb-12 14:00N 49°20' W 123°13'0 0.0
2018-Feb-12 13:27N 49°20' W 123°13'0 0.0
2018-Feb-12 12:57N 49°20' W 123°13'0 0.0
2018-Feb-12 12:27N 49°20' W 123°13'0 0.0
2018-Feb-12 11:57N 49°20' W 123°13'0 0.0
2018-Feb-12 11:27N 49°20' W 123°13'0 0.0
2018-Feb-12 11:00N 49°20' W 123°13'0 0.0
2018-Feb-12 10:24N 49°20' W 123°13'0 0.0
2018-Feb-12 09:57N 49°20' W 123°13'0 0.1
2018-Feb-12 09:27N 49°20' W 123°13'0 0.1
2018-Feb-12 08:57N 49°20' W 123°13'0 0.0
2018-Feb-12 08:30N 49°20' W 123°13'0 0.0
2018-Feb-12 08:00N 49°20' W 123°13'0 0.0
2018-Feb-12 07:30N 49°20' W 123°13'0 0.0
2018-Feb-12 07:00N 49°20' W 123°13'0 0.0
2018-Feb-12 06:27N 49°20' W 123°13'0 0.1
2018-Feb-12 06:00N 49°20' W 123°13'0 0.0
2018-Feb-12 05:27N 49°20' W 123°13'0 0.1
2018-Feb-12 05:00N 49°20' W 123°13'0 0.0
2018-Feb-12 04:27N 49°20' W 123°13'0 0.1
2018-Feb-12 04:00N 49°20' W 123°13'2 3.7
2018-Feb-12 03:30N 49°19' W 123°16'4 8.4
2018-Feb-12 03:00N 49°15' W 123°19'612.1
2018-Feb-12 02:28N 49°09' W 123°20'511.4
2018-Feb-12 02:00N 49°04' W 123°20'510.5
2018-Feb-12 01:30N 49°01' W 123°13'2 3.9
2018-Feb-12 00:58N 49°01' W 123°10'0 0.0
2018-Feb-12 00:28N 49°01' W 123°10'0 0.0
2018-Feb-11 23:58N 49°01' W 123°10'0 0.0
2018-Feb-11 23:28N 49°01' W 123°10'0 0.0
2018-Feb-11 22:58N 49°01' W 123°10'0 0.0
2018-Feb-11 22:25N 49°01' W 123°10'0 0.0
2018-Feb-11 21:55N 49°01' W 123°10'0 0.0
2018-Feb-11 21:25N 49°01' W 123°10'0 0.0
2018-Feb-11 20:55N 49°01' W 123°10'0 0.0
2018-Feb-11 20:28N 49°01' W 123°10'0 0.0
2018-Feb-11 19:58N 49°01' W 123°10'0 0.0
2018-Feb-11 19:22N 49°01' W 123°10'0 0.0
2018-Feb-11 18:55N 49°01' W 123°10'0 0.0
2018-Feb-11 18:28N 49°01' W 123°10'0 0.0
2018-Feb-11 17:58N 49°01' W 123°10'0 0.0
2018-Feb-11 17:28N 49°01' W 123°10'0 0.0
2018-Feb-11 16:58N 49°01' W 123°10'0 0.0
2018-Feb-11 16:25N 49°01' W 123°10'0 0.0
2018-Feb-11 15:58N 49°01' W 123°10'0 0.0
2018-Feb-11 15:25N 49°01' W 123°10'0 0.0
2018-Feb-11 14:58N 49°01' W 123°10'0 0.0
2018-Feb-11 14:28N 49°01' W 123°10'0 0.0
2018-Feb-11 13:55N 49°01' W 123°10'0 0.0
2018-Feb-11 13:28N 49°01' W 123°10'0 0.0
2018-Feb-11 12:58N 49°01' W 123°10'0 0.0
2018-Feb-11 12:19N 49°01' W 123°10'0 0.0
2018-Feb-11 11:58N 49°01' W 123°10'0 0.0
2018-Feb-11 11:16N 49°01' W 123°10'0 0.0
2018-Feb-11 10:58N 49°01' W 123°10'0 0.0
2018-Feb-11 10:22N 49°01' W 123°10'0 0.0
2018-Feb-11 09:58N 49°01' W 123°10'0 0.0
2018-Feb-11 09:28N 49°01' W 123°10'0 0.0
2018-Feb-11 08:58N 49°01' W 123°10'0 0.0
2018-Feb-11 08:25N 49°01' W 123°10'0 0.0
2018-Feb-11 07:55N 49°01' W 123°10'0 0.0
2018-Feb-11 07:25N 49°01' W 123°10'0 0.0
2018-Feb-11 06:58N 49°01' W 123°10'0 0.0
2018-Feb-11 06:25N 49°01' W 123°10'0 0.0
2018-Feb-11 05:55N 49°01' W 123°10'0 0.0
2018-Feb-11 05:28N 49°01' W 123°10'0 0.0
2018-Feb-11 04:58N 49°01' W 123°10'0 0.0
2018-Feb-11 04:25N 49°01' W 123°10'0 0.0
2018-Feb-11 03:55N 49°01' W 123°10'0 0.0
2018-Feb-11 03:19N 49°01' W 123°10'0 0.0
2018-Feb-11 02:55N 49°01' W 123°10'0 0.0
2018-Feb-11 02:19N 49°01' W 123°10'0 0.0
2018-Feb-11 01:55N 49°01' W 123°10'0 0.4
2018-Feb-11 01:29N 49°01' W 123°10'2 3.5
2018-Feb-11 01:00N 48°59' W 123°09'611.1
2018-Feb-11 00:30N 48°54' W 123°05'612.0
2018-Feb-11 00:00N 48°49' W 122°60'510.7
2018-Feb-10 23:30N 48°45' W 123°04'612.1
2018-Feb-10 23:00N 48°42' W 123°13'510.2
2018-Feb-10 22:30N 48°37' W 123°14'612.4
2018-Feb-10 21:59N 48°31' W 123°11'611.9
2018-Feb-10 21:30N 48°25' W 123°11'612.3
2018-Feb-10 21:00N 48°22' W 123°18'610.0
2018-Feb-10 20:25N 48°24' W 123°27'0 0.7
2018-Feb-10 19:59N 48°24' W 123°27'0 0.0
2018-Feb-10 19:29N 48°24' W 123°27'0 0.1
2018-Feb-10 18:59N 48°24' W 123°27'0 0.0
2018-Feb-10 15:56N 48°24' W 123°27'0 0.0
2018-Feb-10 15:29N 48°24' W 123°27'0 0.1
2018-Feb-10 14:56N 48°24' W 123°27'0 0.1
2018-Feb-10 14:29N 48°24' W 123°27'0 0.1
2018-Feb-10 13:56N 48°24' W 123°27'0 0.0
2018-Feb-10 13:17N 48°24' W 123°27'0 0.3
2018-Feb-10 12:59N 48°24' W 123°27'0 0.2
2018-Feb-10 12:29N 48°24' W 123°27'0 0.2
2018-Feb-10 11:59N 48°24' W 123°27'0 0.0
2018-Feb-10 11:29N 48°24' W 123°27'0 0.1
2018-Feb-10 10:53N 48°24' W 123°27'0 0.0
2018-Feb-10 10:29N 48°24' W 123°27'0 0.0
2018-Feb-10 09:08N 48°24' W 123°27'0 0.0
2018-Feb-10 08:59N 48°24' W 123°27'0 0.0
2018-Feb-10 08:29N 48°24' W 123°27'  
2018-Feb-08 01:23N 48°24' W 123°27'0 0.0
2018-Feb-07 08:53N 48°24' W 123°27'0 0.0
2018-Feb-07 08:23N 48°24' W 123°27'0 0.0
2018-Feb-07 07:50N 48°24' W 123°27'0 0.1
2018-Feb-07 05:29N 48°24' W 123°27'0 0.0
2018-Feb-07 04:59N 48°24' W 123°27'0 0.1
2018-Feb-07 04:29N 48°24' W 123°27'0 0.1
2018-Feb-07 03:47N 48°24' W 123°27'0 0.0
2018-Feb-07 03:26N 48°24' W 123°27'0 0.0
2018-Feb-07 02:59N 48°24' W 123°27'0 0.0
2018-Feb-07 02:23N 48°24' W 123°27'0 0.0
2018-Feb-07 01:59N 48°24' W 123°27'0 0.0
2018-Feb-07 01:23N 48°24' W 123°27'0 0.0
2018-Feb-06 22:35N 48°24' W 123°27'0 0.2
2018-Feb-06 22:20N 48°24' W 123°27'0 0.0
2018-Feb-06 20:14N 48°24' W 123°27'0 0.0
2018-Feb-06 19:35N 48°24' W 123°27'0 0.0
2018-Feb-06 19:29N 48°24' W 123°27'0 0.0
2018-Feb-06 18:29N 48°24' W 123°27'0 0.0
2018-Feb-06 16:53N 48°24' W 123°27'0 0.1
2018-Feb-06 15:11N 48°24' W 123°27'0 0.0
2018-Feb-06 14:59N 48°24' W 123°27'0 0.0
2018-Feb-06 14:14N 48°24' W 123°27'0 0.0
2018-Feb-06 12:59N 48°24' W 123°27'0 0.0
2018-Feb-06 06:38N 48°24' W 123°27'0 0.1
2018-Feb-06 06:26N 48°24' W 123°27'0 0.1
2018-Feb-06 05:56N 48°24' W 123°27'0 0.1
2018-Feb-06 05:26N 48°24' W 123°27'0 0.0
2018-Feb-06 04:56N 48°24' W 123°27'0 0.1
2018-Feb-06 04:26N 48°24' W 123°27'0 0.1
2018-Feb-06 03:50N 48°24' W 123°27'0 0.0
2018-Feb-06 03:14N 48°24' W 123°27'0 0.0
2018-Feb-06 02:53N 48°24' W 123°27'0 0.0
2018-Feb-06 02:29N 48°24' W 123°27'0 0.0
2018-Feb-06 01:59N 48°24' W 123°27'0 0.0
2018-Feb-06 01:14N 48°24' W 123°27'  
Track history (hours):
 
Tides and Currents Weather Stations Pressure Air Temp Water Temp Dewpoint Dewpoint Depression Visibility Wind Speed Wind Dir Waves Ship Positions

Honest Sky

Last reported at 2018-Feb-16 00:49 UTC. Time now 2018-Feb-17 20:13 UTC.
Position N 48°37' W 126°18'.

Length 235 m; draft 13.9 m.

Type: Cargo ship. MMSI: 354436000.

Date/timePositionNaut miles runAvg speedWind from/ knotsBaromVisibWave heightAir tempDewpointWater temp
2018-Feb-16 00:49N 48°37' W 126°18'3 9.8
2018-Feb-16 00:30N 48°36' W 126°14'510.4
2018-Feb-16 00:00N 48°34' W 126°07'510.4
2018-Feb-15 23:30N 48°32' W 125°59'510.2
2018-Feb-15 23:00N 48°32' W 125°52'510.4
2018-Feb-15 22:30N 48°32' W 125°44'510.7
2018-Feb-15 22:00N 48°31' W 125°36'510.1
2018-Feb-15 21:30N 48°31' W 125°28'5 9.6
2018-Feb-15 21:00N 48°31' W 125°21'5 9.6
2018-Feb-15 20:28N 48°31' W 125°13'510.1
2018-Feb-15 19:57N 48°31' W 125°05'610.2
2018-Feb-15 19:20N 48°31' W 124°56'310.6
2018-Feb-15 19:00N 48°31' W 124°50'611.0
2018-Feb-15 18:30N 48°30' W 124°42'611.4
2018-Feb-15 17:59N 48°28' W 124°34'611.9
2018-Feb-15 17:30N 48°26' W 124°26'612.6
2018-Feb-15 17:00N 48°23' W 124°17'712.7
2018-Feb-15 16:29N 48°21' W 124°08'612.8
2018-Feb-15 16:00N 48°18' W 123°59'612.5
2018-Feb-15 15:30N 48°17' W 123°50'811.6
2018-Feb-15 14:46N 48°16' W 123°38'310.8
2018-Feb-15 14:30N 48°16' W 123°33'510.0
2018-Feb-15 14:00N 48°19' W 123°27'5 9.6
2018-Feb-15 13:30N 48°23' W 123°23'5 9.7
2018-Feb-15 13:00N 48°24' W 123°16'510.1
2018-Feb-15 12:30N 48°28' W 123°13'510.8
2018-Feb-15 12:00N 48°33' W 123°13'510.0
2018-Feb-15 11:30N 48°38' W 123°15'4 8.5
2018-Feb-15 11:00N 48°42' W 123°13'5 9.6
2018-Feb-15 10:30N 48°45' W 123°07'5 9.7
2018-Feb-15 10:00N 48°47' W 123°01'510.4
2018-Feb-15 09:30N 48°52' W 123°02'611.2
2018-Feb-15 09:00N 48°57' W 123°06'4 7.7
2018-Feb-15 08:29N 49°01' W 123°09'0 0.0
2018-Feb-15 07:58N 49°01' W 123°09'0 0.0
2018-Feb-15 07:28N 49°01' W 123°09'0 0.0
2018-Feb-15 06:58N 49°01' W 123°09'0 0.0
2018-Feb-15 06:25N 49°01' W 123°09'0 0.0
2018-Feb-15 05:58N 49°01' W 123°09'0 0.0
2018-Feb-15 05:25N 49°01' W 123°09'0 0.0
2018-Feb-15 04:49N 49°01' W 123°09'0 0.0
2018-Feb-15 04:28N 49°01' W 123°09'0 0.0
2018-Feb-15 03:58N 49°01' W 123°09'0 0.0
2018-Feb-15 03:25N 49°01' W 123°09'0 0.0
2018-Feb-15 02:55N 49°01' W 123°09'0 0.0
2018-Feb-15 02:28N 49°01' W 123°09'0 0.0
2018-Feb-15 01:58N 49°01' W 123°09'0 0.0
2018-Feb-15 01:28N 49°01' W 123°09'0 0.0
2018-Feb-15 00:58N 49°01' W 123°09'0 0.0
2018-Feb-15 00:28N 49°01' W 123°09'0 0.0
2018-Feb-14 23:55N 49°01' W 123°09'0 0.0
2018-Feb-14 23:28N 49°01' W 123°09'0 0.0
2018-Feb-14 22:58N 49°01' W 123°09'0 0.0
2018-Feb-14 22:28N 49°01' W 123°09'0 0.0
2018-Feb-14 21:58N 49°01' W 123°09'0 0.0
2018-Feb-14 21:25N 49°01' W 123°09'0 0.0
2018-Feb-14 20:58N 49°01' W 123°09'0 0.0
2018-Feb-14 20:28N 49°01' W 123°09'0 0.0
2018-Feb-14 19:58N 49°01' W 123°09'0 0.0
2018-Feb-14 19:28N 49°01' W 123°09'0 0.0
2018-Feb-14 18:55N 49°01' W 123°09'0 0.0
2018-Feb-14 18:25N 49°01' W 123°09'0 0.0
2018-Feb-14 17:55N 49°01' W 123°09'0 0.0
2018-Feb-14 17:19N 49°01' W 123°09'0 0.0
2018-Feb-14 16:43N 49°01' W 123°09'0 0.0
2018-Feb-14 16:25N 49°01' W 123°09'0 0.0
2018-Feb-14 15:55N 49°01' W 123°09'0 0.0
2018-Feb-14 15:22N 49°01' W 123°09'0 0.0
2018-Feb-14 14:49N 49°01' W 123°09'0 0.0
2018-Feb-14 14:25N 49°01' W 123°09'0 0.0
2018-Feb-14 13:58N 49°01' W 123°09'0 0.0
2018-Feb-14 13:28N 49°01' W 123°09'0 0.0
2018-Feb-14 12:55N 49°01' W 123°09'0 0.0
2018-Feb-14 12:28N 49°01' W 123°09'0 0.0
2018-Feb-14 11:55N 49°01' W 123°09'0 0.0
2018-Feb-14 11:28N 49°01' W 123°09'0 0.0
2018-Feb-14 10:58N 49°01' W 123°09'0 0.0
2018-Feb-14 10:28N 49°01' W 123°09'0 0.0
2018-Feb-14 09:58N 49°01' W 123°09'0 0.0
2018-Feb-14 09:28N 49°01' W 123°09'0 0.0
2018-Feb-14 08:58N 49°01' W 123°09'0 0.0
2018-Feb-14 08:25N 49°01' W 123°09'0 0.0
2018-Feb-14 07:43N 49°01' W 123°09'0 0.0
2018-Feb-14 06:55N 49°01' W 123°09'0 0.0
2018-Feb-14 06:25N 49°01' W 123°09'0 0.0
2018-Feb-14 05:04N 49°01' W 123°09'0 0.0
2018-Feb-14 04:55N 49°01' W 123°09'0 0.0
2018-Feb-14 03:46N 49°01' W 123°09'0 0.0
2018-Feb-14 03:22N 49°01' W 123°09'0 0.0
2018-Feb-14 02:49N 49°01' W 123°09'0 0.0
2018-Feb-14 02:25N 49°01' W 123°09'0 0.0
2018-Feb-14 01:55N 49°01' W 123°09'0 0.0
2018-Feb-14 01:22N 49°01' W 123°09'0 0.0
2018-Feb-14 00:55N 49°01' W 123°09'0 0.0
2018-Feb-14 00:25N 49°01' W 123°09'0 0.0
2018-Feb-13 23:40N 49°01' W 123°09'0 0.0
2018-Feb-13 23:16N 49°01' W 123°09'0 0.0
2018-Feb-13 22:58N 49°01' W 123°09'0 0.0
2018-Feb-13 22:25N 49°01' W 123°09'0 0.0
2018-Feb-13 21:49N 49°01' W 123°09'0 0.0
2018-Feb-13 21:19N 49°01' W 123°09'0 0.0
2018-Feb-13 20:58N 49°01' W 123°09'0 0.0
2018-Feb-13 20:25N 49°01' W 123°09'0 0.0
2018-Feb-13 19:55N 49°01' W 123°09'0 0.0
2018-Feb-13 19:28N 49°01' W 123°09'0 0.0
2018-Feb-13 18:58N 49°01' W 123°09'0 0.0
2018-Feb-13 18:28N 49°01' W 123°09'0 0.0
2018-Feb-13 17:58N 49°01' W 123°09'0 0.0
2018-Feb-13 17:28N 49°01' W 123°09'0 0.0
2018-Feb-13 16:58N 49°01' W 123°09'0 0.0
2018-Feb-13 16:28N 49°01' W 123°09'0 0.0
2018-Feb-13 15:55N 49°01' W 123°09'0 0.0
2018-Feb-13 15:25N 49°01' W 123°09'0 0.0
2018-Feb-13 14:58N 49°01' W 123°09'0 0.0
2018-Feb-13 14:28N 49°01' W 123°09'0 0.0
2018-Feb-13 13:55N 49°01' W 123°09'0 0.0
2018-Feb-13 13:28N 49°01' W 123°09'0 0.0
2018-Feb-13 12:55N 49°01' W 123°09'0 0.0
2018-Feb-13 12:28N 49°01' W 123°09'0 0.0
2018-Feb-13 11:58N 49°01' W 123°09'0 0.0
2018-Feb-13 11:28N 49°01' W 123°09'0 0.0
2018-Feb-13 10:58N 49°01' W 123°09'0 0.0
2018-Feb-13 10:28N 49°01' W 123°09'0 0.0
2018-Feb-13 09:55N 49°01' W 123°09'0 0.0
2018-Feb-13 09:25N 49°01' W 123°09'0 0.0
2018-Feb-13 08:58N 49°01' W 123°09'0 0.0
2018-Feb-13 08:22N 49°01' W 123°09'0 0.0
2018-Feb-13 07:58N 49°01' W 123°09'0 0.0
2018-Feb-13 07:28N 49°01' W 123°09'0 0.0
2018-Feb-13 06:58N 49°01' W 123°09'0 0.0
2018-Feb-13 06:28N 49°01' W 123°09'0 0.0
2018-Feb-13 05:58N 49°01' W 123°09'0 0.0
2018-Feb-13 05:25N 49°01' W 123°09'0 0.0
2018-Feb-13 04:58N 49°01' W 123°09'0 0.0
2018-Feb-13 04:22N 49°01' W 123°09'0 0.0
2018-Feb-13 03:55N 49°01' W 123°09'0 0.0
2018-Feb-13 03:28N 49°01' W 123°09'0 0.0
2018-Feb-13 02:58N 49°01' W 123°09'0 0.0
2018-Feb-13 02:28N 49°01' W 123°09'0 0.0
2018-Feb-13 01:55N 49°01' W 123°09'0 0.0
2018-Feb-13 01:22N 49°01' W 123°09'0 0.0
2018-Feb-13 00:58N 49°01' W 123°09'0 0.0
2018-Feb-13 00:28N 49°01' W 123°09'0 0.0
2018-Feb-12 23:55N 49°01' W 123°09'0 0.0
2018-Feb-12 23:16N 49°01' W 123°09'0 0.0
2018-Feb-12 22:37N 49°01' W 123°09'0 0.0
2018-Feb-12 22:25N 49°01' W 123°09'0 0.0
2018-Feb-12 21:55N 49°01' W 123°09'0 0.0
2018-Feb-12 21:10N 49°01' W 123°09'0 0.0
2018-Feb-12 20:58N 49°01' W 123°09'0 0.0
2018-Feb-12 20:19N 49°01' W 123°09'0 0.0
2018-Feb-12 19:52N 49°01' W 123°09'0 0.0
2018-Feb-12 19:10N 49°01' W 123°09'0 0.0
2018-Feb-12 18:58N 49°01' W 123°09'0 0.3
2018-Feb-12 18:30N 49°01' W 123°09'2 3.9
2018-Feb-12 18:00N 49°00' W 123°12'510.3
2018-Feb-12 17:30N 49°02' W 123°20'510.4
2018-Feb-12 17:00N 49°06' W 123°24'611.7
2018-Feb-12 16:30N 49°12' W 123°22'612.5
2018-Feb-12 16:00N 49°18' W 123°18'4 8.4
2018-Feb-12 15:30N 49°20' W 123°13'0 0.1
2018-Feb-12 14:48N 49°20' W 123°13'0 0.0
2018-Feb-12 14:27N 49°20' W 123°13'0 0.0
2018-Feb-12 14:00N 49°20' W 123°13'0 0.0
2018-Feb-12 13:27N 49°20' W 123°13'0 0.0
2018-Feb-12 12:57N 49°20' W 123°13'0 0.0
2018-Feb-12 12:27N 49°20' W 123°13'0 0.0
2018-Feb-12 11:57N 49°20' W 123°13'0 0.0
2018-Feb-12 11:27N 49°20' W 123°13'0 0.0
2018-Feb-12 11:00N 49°20' W 123°13'0 0.0
2018-Feb-12 10:24N 49°20' W 123°13'0 0.0
2018-Feb-12 09:57N 49°20' W 123°13'0 0.1
2018-Feb-12 09:27N 49°20' W 123°13'0 0.1
2018-Feb-12 08:57N 49°20' W 123°13'0 0.0
2018-Feb-12 08:30N 49°20' W 123°13'0 0.0
2018-Feb-12 08:00N 49°20' W 123°13'0 0.0
2018-Feb-12 07:30N 49°20' W 123°13'0 0.0
2018-Feb-12 07:00N 49°20' W 123°13'0 0.0
2018-Feb-12 06:27N 49°20' W 123°13'0 0.1
2018-Feb-12 06:00N 49°20' W 123°13'0 0.0
2018-Feb-12 05:27N 49°20' W 123°13'0 0.1
2018-Feb-12 05:00N 49°20' W 123°13'0 0.0
2018-Feb-12 04:27N 49°20' W 123°13'0 0.1
2018-Feb-12 04:00N 49°20' W 123°13'2 3.7
2018-Feb-12 03:30N 49°19' W 123°16'4 8.4
2018-Feb-12 03:00N 49°15' W 123°19'612.1
2018-Feb-12 02:28N 49°09' W 123°20'511.4
2018-Feb-12 02:00N 49°04' W 123°20'510.5
2018-Feb-12 01:30N 49°01' W 123°13'2 3.9
2018-Feb-12 00:58N 49°01' W 123°10'0 0.0
2018-Feb-12 00:28N 49°01' W 123°10'0 0.0
2018-Feb-11 23:58N 49°01' W 123°10'0 0.0
2018-Feb-11 23:28N 49°01' W 123°10'0 0.0
2018-Feb-11 22:58N 49°01' W 123°10'0 0.0
2018-Feb-11 22:25N 49°01' W 123°10'0 0.0
2018-Feb-11 21:55N 49°01' W 123°10'0 0.0
2018-Feb-11 21:25N 49°01' W 123°10'0 0.0
2018-Feb-11 20:55N 49°01' W 123°10'0 0.0
2018-Feb-11 20:28N 49°01' W 123°10'0 0.0
2018-Feb-11 19:58N 49°01' W 123°10'0 0.0
2018-Feb-11 19:22N 49°01' W 123°10'0 0.0
2018-Feb-11 18:55N 49°01' W 123°10'0 0.0
2018-Feb-11 18:28N 49°01' W 123°10'0 0.0
2018-Feb-11 17:58N 49°01' W 123°10'0 0.0
2018-Feb-11 17:28N 49°01' W 123°10'0 0.0
2018-Feb-11 16:58N 49°01' W 123°10'0 0.0
2018-Feb-11 16:25N 49°01' W 123°10'0 0.0
2018-Feb-11 15:58N 49°01' W 123°10'0 0.0
2018-Feb-11 15:25N 49°01' W 123°10'0 0.0
2018-Feb-11 14:58N 49°01' W 123°10'0 0.0
2018-Feb-11 14:28N 49°01' W 123°10'0 0.0
2018-Feb-11 13:55N 49°01' W 123°10'0 0.0
2018-Feb-11 13:28N 49°01' W 123°10'0 0.0
2018-Feb-11 12:58N 49°01' W 123°10'0 0.0
2018-Feb-11 12:19N 49°01' W 123°10'0 0.0
2018-Feb-11 11:58N 49°01' W 123°10'0 0.0
2018-Feb-11 11:16N 49°01' W 123°10'0 0.0
2018-Feb-11 10:58N 49°01' W 123°10'0 0.0
2018-Feb-11 10:22N 49°01' W 123°10'0 0.0
2018-Feb-11 09:58N 49°01' W 123°10'0 0.0
2018-Feb-11 09:28N 49°01' W 123°10'0 0.0
2018-Feb-11 08:58N 49°01' W 123°10'0 0.0
2018-Feb-11 08:25N 49°01' W 123°10'0 0.0
2018-Feb-11 07:55N 49°01' W 123°10'0 0.0
2018-Feb-11 07:25N 49°01' W 123°10'0 0.0
2018-Feb-11 06:58N 49°01' W 123°10'0 0.0
2018-Feb-11 06:25N 49°01' W 123°10'0 0.0
2018-Feb-11 05:55N 49°01' W 123°10'0 0.0
2018-Feb-11 05:28N 49°01' W 123°10'0 0.0
2018-Feb-11 04:58N 49°01' W 123°10'0 0.0
2018-Feb-11 04:25N 49°01' W 123°10'0 0.0
2018-Feb-11 03:55N 49°01' W 123°10'0 0.0
2018-Feb-11 03:19N 49°01' W 123°10'0 0.0
2018-Feb-11 02:55N 49°01' W 123°10'0 0.0
2018-Feb-11 02:19N 49°01' W 123°10'0 0.0
2018-Feb-11 01:55N 49°01' W 123°10'0 0.4
2018-Feb-11 01:29N 49°01' W 123°10'2 3.5
2018-Feb-11 01:00N 48°59' W 123°09'611.1
2018-Feb-11 00:30N 48°54' W 123°05'612.0
2018-Feb-11 00:00N 48°49' W 122°60'510.7
2018-Feb-10 23:30N 48°45' W 123°04'612.1
2018-Feb-10 23:00N 48°42' W 123°13'510.2
2018-Feb-10 22:30N 48°37' W 123°14'612.4
2018-Feb-10 21:59N 48°31' W 123°11'611.9
2018-Feb-10 21:30N 48°25' W 123°11'612.3
2018-Feb-10 21:00N 48°22' W 123°18'610.0
2018-Feb-10 20:25N 48°24' W 123°27'0 0.7
2018-Feb-10 19:59N 48°24' W 123°27'0 0.0
2018-Feb-10 19:29N 48°24' W 123°27'0 0.1
2018-Feb-10 18:59N 48°24' W 123°27'0 0.0
2018-Feb-10 15:56N 48°24' W 123°27'0 0.0
2018-Feb-10 15:29N 48°24' W 123°27'0 0.1
2018-Feb-10 14:56N 48°24' W 123°27'0 0.1
2018-Feb-10 14:29N 48°24' W 123°27'0 0.1
2018-Feb-10 13:56N 48°24' W 123°27'0 0.0
2018-Feb-10 13:17N 48°24' W 123°27'0 0.3
2018-Feb-10 12:59N 48°24' W 123°27'0 0.2
2018-Feb-10 12:29N 48°24' W 123°27'0 0.2
2018-Feb-10 11:59N 48°24' W 123°27'0 0.0
2018-Feb-10 11:29N 48°24' W 123°27'0 0.1
2018-Feb-10 10:53N 48°24' W 123°27'0 0.0
2018-Feb-10 10:29N 48°24' W 123°27'0 0.0
2018-Feb-10 09:08N 48°24' W 123°27'0 0.0
2018-Feb-10 08:59N 48°24' W 123°27'0 0.0
2018-Feb-10 08:29N 48°24' W 123°27'  
2018-Feb-08 01:23N 48°24' W 123°27'0 0.0
2018-Feb-07 08:53N 48°24' W 123°27'0 0.0
2018-Feb-07 08:23N 48°24' W 123°27'0 0.0
2018-Feb-07 07:50N 48°24' W 123°27'0 0.1
2018-Feb-07 05:29N 48°24' W 123°27'0 0.0
2018-Feb-07 04:59N 48°24' W 123°27'0 0.1
2018-Feb-07 04:29N 48°24' W 123°27'0 0.1
2018-Feb-07 03:47N 48°24' W 123°27'0 0.0
2018-Feb-07 03:26N 48°24' W 123°27'0 0.0
2018-Feb-07 02:59N 48°24' W 123°27'0 0.0
2018-Feb-07 02:23N 48°24' W 123°27'0 0.0
2018-Feb-07 01:59N 48°24' W 123°27'0 0.0
2018-Feb-07 01:23N 48°24' W 123°27'0 0.0
2018-Feb-06 22:35N 48°24' W 123°27'0 0.2
2018-Feb-06 22:20N 48°24' W 123°27'0 0.0
2018-Feb-06 20:14N 48°24' W 123°27'0 0.0
2018-Feb-06 19:35N 48°24' W 123°27'0 0.0
2018-Feb-06 19:29N 48°24' W 123°27'0 0.0
2018-Feb-06 18:29N 48°24' W 123°27'0 0.0
2018-Feb-06 16:53N 48°24' W 123°27'0 0.1
2018-Feb-06 15:11N 48°24' W 123°27'0 0.0
2018-Feb-06 14:59N 48°24' W 123°27'0 0.0
2018-Feb-06 14:14N 48°24' W 123°27'0 0.0
2018-Feb-06 12:59N 48°24' W 123°27'0 0.0
2018-Feb-06 06:38N 48°24' W 123°27'0 0.1
2018-Feb-06 06:26N 48°24' W 123°27'0 0.1
2018-Feb-06 05:56N 48°24' W 123°27'0 0.1
2018-Feb-06 05:26N 48°24' W 123°27'0 0.0
2018-Feb-06 04:56N 48°24' W 123°27'0 0.1
2018-Feb-06 04:26N 48°24' W 123°27'0 0.1
2018-Feb-06 03:50N 48°24' W 123°27'0 0.0
2018-Feb-06 03:14N 48°24' W 123°27'0 0.0
2018-Feb-06 02:53N 48°24' W 123°27'0 0.0
2018-Feb-06 02:29N 48°24' W 123°27'0 0.0
2018-Feb-06 01:59N 48°24' W 123°27'0 0.0
2018-Feb-06 01:14N 48°24' W 123°27'  

Dump ship's entire track history